tititudorancea.com
Station Historical Data
Daily Summary for December 6, 2018 Units:  Both    English   Metric
« Previous Day
Next Day »
Daily Weekly Monthly Yearly Custom
  High: Low: Average:
Temperature: TemperatureF °F /  -17.8 °C 50 °F /  10 °C 76.8 °F /  24.9 °C
Dew Point: DewpointF °F /  -17.8 °C 37.1 °F /  2.8 °C 46.3 °F /  7.9 °C
Humidity: Humidity % 13 % 43 %
Wind Speed: WindSpeedMPH mph /  0 km/h - 6.4 mph /  10.3 km/h
Wind Gust: WindSpeedGustMPH mph /  0 km/h - -
Wind:- - SW
Pressure: PressureIn in /  0 hPa 29.79 in /  1008.7 hPa -
Precipitation: 0 in /  0 mm    
Historical Graphs
 
 
Ararat weather Find more about Weather in Ararat, AU


 



 


Tabular Data for December 6, 2018
Time Temperature Dew Point Pressure Wind Wind Speed Wind Gust Humidity Rainfall Rate (Hourly)
TemperatureF °F /  -17.8 °C DewpointF °F /  -17.8 °C PressureIn in /  0 hPa Calm     Humidity % HourlyPrecipIn in /  0 mm
00:04 62.4 °F /  16.9 °C 51.7 °F /  10.9 °C 29.97 in /  1014.8 hPa Calm     68 % 0 in /  0 mm
00:09 62.1 °F /  16.7 °C 51.4 °F /  10.8 °C 29.97 in /  1014.8 hPa Calm     68 % 0 in /  0 mm
00:14 61.6 °F /  16.4 °C 51.3 °F /  10.7 °C 29.97 in /  1014.8 hPa Calm     69 % 0 in /  0 mm
00:19 61.2 °F /  16.2 °C 51.3 °F /  10.7 °C 29.97 in /  1014.8 hPa Calm     70 % 0 in /  0 mm
00:24 60.8 °F /  16 °C 51.3 °F /  10.7 °C 29.97 in /  1014.8 hPa Calm     71 % 0 in /  0 mm
00:29 60.6 °F /  15.9 °C 51.1 °F /  10.6 °C 29.97 in /  1014.8 hPa South 2.3 mph /  3.7 km/h 1.2 mph /  1.9 km/h 71 % 0 in /  0 mm
00:34 60.6 °F /  15.9 °C 51.5 °F /  10.8 °C 29.97 in /  1014.8 hPa Calm     72 % 0 in /  0 mm
00:39 60.5 °F /  15.8 °C 51.4 °F /  10.8 °C 29.96 in /  1014.4 hPa South 1 mph /  1.6 km/h 0.1 mph /  0.2 km/h 72 % 0 in /  0 mm
00:44 60.4 °F /  15.8 °C 51.3 °F /  10.7 °C 29.97 in /  1014.8 hPa Calm     72 % 0 in /  0 mm
00:49 60.2 °F /  15.7 °C 51.5 °F /  10.8 °C 29.97 in /  1014.8 hPa South 2.3 mph /  3.7 km/h 1.4 mph /  2.3 km/h 73 % 0 in /  0 mm
00:54 60.1 °F /  15.6 °C 51.4 °F /  10.8 °C 29.97 in /  1014.8 hPa South 2.3 mph /  3.7 km/h 0.5 mph /  0.8 km/h 73 % 0 in /  0 mm
00:59 60 °F /  15.6 °C 50.9 °F /  10.5 °C 29.96 in /  1014.4 hPa Calm     72 % 0 in /  0 mm
01:04 59.7 °F /  15.4 °C 50.7 °F /  10.4 °C 29.96 in /  1014.4 hPa Calm     72 % 0 in /  0 mm
01:09 59.4 °F /  15.2 °C 50.4 °F /  10.2 °C 29.96 in /  1014.4 hPa Calm     72 % 0 in /  0 mm
01:14 59.2 °F /  15.1 °C 50.5 °F /  10.3 °C 29.96 in /  1014.4 hPa Calm     73 % 0 in /  0 mm
01:19 58.9 °F /  14.9 °C 50.3 °F /  10.2 °C 29.96 in /  1014.4 hPa Calm     73 % 0 in /  0 mm
01:24 58.7 °F /  14.8 °C 50.4 °F /  10.2 °C 29.96 in /  1014.4 hPa Calm     74 % 0 in /  0 mm
01:29 58.5 °F /  14.7 °C 50.2 °F /  10.1 °C 29.96 in /  1014.4 hPa Calm     74 % 0 in /  0 mm
01:34 58.1 °F /  14.5 °C 49.9 °F /  9.9 °C 29.96 in /  1014.4 hPa Calm     74 % 0 in /  0 mm
01:39 57.7 °F /  14.3 °C 49.5 °F /  9.7 °C 29.96 in /  1014.4 hPa Calm     74 % 0 in /  0 mm
01:44 57.4 °F /  14.1 °C 49.2 °F /  9.6 °C 29.96 in /  1014.4 hPa Calm     74 % 0 in /  0 mm
01:49 57 °F /  13.9 °C 49.2 °F /  9.6 °C 29.96 in /  1014.4 hPa Calm     75 % 0 in /  0 mm
01:54 56.6 °F /  13.7 °C 49.1 °F /  9.5 °C 29.96 in /  1014.4 hPa Calm     76 % 0 in /  0 mm
01:59 56.3 °F /  13.5 °C 49.2 °F /  9.6 °C 29.95 in /  1014.1 hPa Calm     77 % 0 in /  0 mm
02:04 55.9 °F /  13.3 °C 48.8 °F /  9.3 °C 29.96 in /  1014.4 hPa Calm     77 % 0 in /  0 mm
02:09 55.6 °F /  13.1 °C 48.8 °F /  9.3 °C 29.95 in /  1014.1 hPa Calm     78 % 0 in /  0 mm
02:14 55.2 °F /  12.9 °C 48.8 °F /  9.3 °C 29.95 in /  1014.1 hPa Calm     79 % 0 in /  0 mm
02:19 54.9 °F /  12.7 °C 48.8 °F /  9.3 °C 29.95 in /  1014.1 hPa Calm     80 % 0 in /  0 mm
02:24 54.7 °F /  12.6 °C 49 °F /  9.4 °C 29.95 in /  1014.1 hPa Calm     81 % 0 in /  0 mm
02:29 54.5 °F /  12.5 °C 48.8 °F /  9.3 °C 29.95 in /  1014.1 hPa Calm     81 % 0 in /  0 mm
02:34 54.3 °F /  12.4 °C 48.9 °F /  9.4 °C 29.95 in /  1014.1 hPa Calm     82 % 0 in /  0 mm
02:39 54.1 °F /  12.3 °C 49.1 °F /  9.5 °C 29.94 in /  1013.8 hPa Calm     83 % 0 in /  0 mm
02:44 54.1 °F /  12.3 °C 49.1 °F /  9.5 °C 29.94 in /  1013.8 hPa Calm     83 % 0 in /  0 mm
02:49 53.9 °F /  12.2 °C 48.9 °F /  9.4 °C 29.94 in /  1013.8 hPa Calm     83 % 0 in /  0 mm
02:54 53.6 °F /  12 °C 48.6 °F /  9.2 °C 29.94 in /  1013.8 hPa Calm     83 % 0 in /  0 mm
02:59 53.4 °F /  11.9 °C 48.7 °F /  9.3 °C 29.94 in /  1013.8 hPa Calm     84 % 0 in /  0 mm
03:04 53.2 °F /  11.8 °C 48.5 °F /  9.2 °C 29.94 in /  1013.8 hPa Calm     84 % 0 in /  0 mm
03:09 53.1 °F /  11.7 °C 48.7 °F /  9.3 °C 29.94 in /  1013.8 hPa Calm     85 % 0 in /  0 mm
03:14 53.1 °F /  11.7 °C 49 °F /  9.4 °C 29.94 in /  1013.8 hPa Calm     86 % 0 in /  0 mm
03:19 52.9 °F /  11.6 °C 48.8 °F /  9.3 °C 29.94 in /  1013.8 hPa Calm     86 % 0 in /  0 mm
03:24 52.8 °F /  11.6 °C 48.7 °F /  9.3 °C 29.94 in /  1013.8 hPa Calm     86 % 0 in /  0 mm
03:29 52.7 °F /  11.5 °C 48.9 °F /  9.4 °C 29.94 in /  1013.8 hPa Calm     87 % 0 in /  0 mm
03:34 52.6 °F /  11.4 °C 48.8 °F /  9.3 °C 29.94 in /  1013.8 hPa Calm     87 % 0 in /  0 mm
03:39 52.6 °F /  11.4 °C 48.8 °F /  9.3 °C 29.94 in /  1013.8 hPa Calm     87 % 0 in /  0 mm
03:44 52.6 °F /  11.4 °C 48.8 °F /  9.3 °C 29.94 in /  1013.8 hPa Calm     87 % 0 in /  0 mm
03:49 52.4 °F /  11.3 °C 48.6 °F /  9.2 °C 29.94 in /  1013.8 hPa Calm     87 % 0 in /  0 mm
03:54 52.3 °F /  11.3 °C 48.9 °F /  9.4 °C 29.95 in /  1014.1 hPa Calm     88 % 0 in /  0 mm
03:59 52.5 °F /  11.4 °C 49.4 °F /  9.7 °C 29.94 in /  1013.8 hPa Calm     89 % 0 in /  0 mm
04:04 52.5 °F /  11.4 °C 49 °F /  9.4 °C 29.94 in /  1013.8 hPa Calm     88 % 0 in /  0 mm
04:09 52.3 °F /  11.3 °C 48.9 °F /  9.4 °C 29.94 in /  1013.8 hPa Calm     88 % 0 in /  0 mm
04:14 52.2 °F /  11.2 °C 48.8 °F /  9.3 °C 29.94 in /  1013.8 hPa Calm     88 % 0 in /  0 mm
04:19 51.9 °F /  11.1 °C 48.2 °F /  9 °C 29.94 in /  1013.8 hPa Calm     87 % 0 in /  0 mm
04:24 51.7 °F /  10.9 °C 48 °F /  8.9 °C 29.94 in /  1013.8 hPa Calm     87 % 0 in /  0 mm
04:29 51.6 °F /  10.9 °C 48.2 °F /  9 °C 29.94 in /  1013.8 hPa Calm     88 % 0 in /  0 mm
04:34 51.4 °F /  10.8 °C 48 °F /  8.9 °C 29.94 in /  1013.8 hPa Calm     88 % 0 in /  0 mm
04:39 51.2 °F /  10.7 °C 47.5 °F /  8.6 °C 29.95 in /  1014.1 hPa Calm     87 % 0 in /  0 mm
04:44 51.1 °F /  10.6 °C 47.7 °F /  8.7 °C 29.95 in /  1014.1 hPa Calm     88 % 0 in /  0 mm
04:49 51.1 °F /  10.6 °C 47.7 °F /  8.7 °C 29.95 in /  1014.1 hPa Calm     88 % 0 in /  0 mm
04:54 51 °F /  10.6 °C 47.6 °F /  8.7 °C 29.95 in /  1014.1 hPa Calm     88 % 0 in /  0 mm
04:59 51 °F /  10.6 °C 47.9 °F /  8.8 °C 29.94 in /  1013.8 hPa Calm     89 % 0 in /  0 mm
05:04 50.8 °F /  10.4 °C 47.4 °F /  8.6 °C 29.95 in /  1014.1 hPa Calm     88 % 0 in /  0 mm
05:09 50.6 °F /  10.3 °C 47.2 °F /  8.4 °C 29.95 in /  1014.1 hPa Calm     88 % 0 in /  0 mm
05:14 50.4 °F /  10.2 °C 47 °F /  8.3 °C 29.95 in /  1014.1 hPa Calm     88 % 0 in /  0 mm
05:19 50.3 °F /  10.2 °C 47.2 °F /  8.4 °C 29.95 in /  1014.1 hPa Calm     89 % 0 in /  0 mm
05:24 50.2 °F /  10.1 °C 47.1 °F /  8.4 °C 29.95 in /  1014.1 hPa Calm     89 % 0 in /  0 mm
05:29 50.2 °F /  10.1 °C 47.1 °F /  8.4 °C 29.95 in /  1014.1 hPa Calm     89 % 0 in /  0 mm
05:34 50.1 °F /  10.1 °C 47 °F /  8.3 °C 29.95 in /  1014.1 hPa Calm     89 % 0 in /  0 mm
05:39 50 °F /  10 °C 46.9 °F /  8.3 °C 29.95 in /  1014.1 hPa Calm     89 % 0 in /  0 mm
05:44 50 °F /  10 °C 46.9 °F /  8.3 °C 29.95 in /  1014.1 hPa Calm     89 % 0 in /  0 mm
05:49 50.2 °F /  10.1 °C 47.4 °F /  8.6 °C 29.95 in /  1014.1 hPa Calm     90 % 0 in /  0 mm
05:54 50.5 °F /  10.3 °C 47.7 °F /  8.7 °C 29.95 in /  1014.1 hPa Calm     90 % 0 in /  0 mm
05:59 50.7 °F /  10.4 °C 47.9 °F /  8.8 °C 29.95 in /  1014.1 hPa Calm     90 % 0 in /  0 mm
06:04 50.9 °F /  10.5 °C 48.1 °F /  8.9 °C 29.95 in /  1014.1 hPa Calm     90 % 0 in /  0 mm
06:09 51.4 °F /  10.8 °C 48.6 °F /  9.2 °C 29.96 in /  1014.4 hPa Calm     90 % 0 in /  0 mm
06:14 51.9 °F /  11.1 °C 48.8 °F /  9.3 °C 29.96 in /  1014.4 hPa Calm     89 % 0 in /  0 mm
06:19 52.3 °F /  11.3 °C 48.9 °F /  9.4 °C 29.95 in /  1014.1 hPa Calm     88 % 0 in /  0 mm
06:24 52.7 °F /  11.5 °C 48.6 °F /  9.2 °C 29.96 in /  1014.4 hPa Calm     86 % 0 in /  0 mm
06:29 53.2 °F /  11.8 °C 49.1 °F /  9.5 °C 29.96 in /  1014.4 hPa Calm     86 % 0 in /  0 mm
06:34 53.8 °F /  12.1 °C 49.4 °F /  9.7 °C 29.96 in /  1014.4 hPa Calm     85 % 0 in /  0 mm
06:39 54.4 °F /  12.4 °C 49.7 °F /  9.8 °C 29.96 in /  1014.4 hPa South 2.3 mph /  3.7 km/h 2.1 mph /  3.4 km/h 84 % 0 in /  0 mm
06:44 55.2 °F /  12.9 °C 50.1 °F /  10.1 °C 29.96 in /  1014.4 hPa South 2.3 mph /  3.7 km/h 2 mph /  3.2 km/h 83 % 0 in /  0 mm
06:49 56.4 °F /  13.6 °C 50.6 °F /  10.3 °C 29.96 in /  1014.4 hPa South 2.3 mph /  3.7 km/h 0.2 mph /  0.3 km/h 81 % 0 in /  0 mm
06:54 57.8 °F /  14.3 °C 50.6 °F /  10.3 °C 29.96 in /  1014.4 hPa South 4.6 mph /  7.4 km/h 4.2 mph /  6.8 km/h 77 % 0 in /  0 mm
06:59 60.1 °F /  15.6 °C 50.3 °F /  10.2 °C 29.97 in /  1014.8 hPa South 4.6 mph /  7.4 km/h 3.7 mph /  6 km/h 70 % 0 in /  0 mm
07:04 62.6 °F /  17 °C 49.8 °F /  9.9 °C 29.97 in /  1014.8 hPa South 4.6 mph /  7.4 km/h 2.3 mph /  3.7 km/h 63 % 0 in /  0 mm
07:09 64.2 °F /  17.9 °C 49.6 °F /  9.8 °C 29.97 in /  1014.8 hPa South 4.6 mph /  7.4 km/h 4.6 mph /  7.4 km/h 59 % 0 in /  0 mm
07:14 65.2 °F /  18.4 °C 48.6 °F /  9.2 °C 29.97 in /  1014.8 hPa South 5 mph /  8 km/h 4.9 mph /  7.9 km/h 55 % 0 in /  0 mm
07:19 66 °F /  18.9 °C 48.4 °F /  9.1 °C 29.97 in /  1014.8 hPa South 4.6 mph /  7.4 km/h 3.5 mph /  5.6 km/h 53 % 0 in /  0 mm
07:24 66.9 °F /  19.4 °C 49.2 °F /  9.6 °C 29.97 in /  1014.8 hPa South 3.5 mph /  5.6 km/h 2.2 mph /  3.5 km/h 53 % 0 in /  0 mm
07:29 67.8 °F /  19.9 °C 50.5 °F /  10.3 °C 29.96 in /  1014.4 hPa South 2.3 mph /  3.7 km/h 1.4 mph /  2.3 km/h 54 % 0 in /  0 mm
07:34 68.6 °F /  20.3 °C 49.7 °F /  9.8 °C 29.97 in /  1014.8 hPa South 4.6 mph /  7.4 km/h 4 mph /  6.4 km/h 51 % 0 in /  0 mm
07:39 69.5 °F /  20.8 °C 48.9 °F /  9.4 °C 29.97 in /  1014.8 hPa South 4.6 mph /  7.4 km/h 2.9 mph /  4.7 km/h 48 % 0 in /  0 mm
07:44 70.3 °F /  21.3 °C 48.5 °F /  9.2 °C 29.97 in /  1014.8 hPa South 4.6 mph /  7.4 km/h 2.5 mph /  4 km/h 46 % 0 in /  0 mm
07:49 70.7 °F /  21.5 °C 48.9 °F /  9.4 °C 29.97 in /  1014.8 hPa South 4.6 mph /  7.4 km/h 2 mph /  3.2 km/h 46 % 0 in /  0 mm
07:54 71 °F /  21.7 °C 49.2 °F /  9.6 °C 29.96 in /  1014.4 hPa South 6 mph /  9.7 km/h 2.2 mph /  3.5 km/h 46 % 0 in /  0 mm
07:59 71.2 °F /  21.8 °C 49.4 °F /  9.7 °C 29.97 in /  1014.8 hPa South 4.6 mph /  7.4 km/h 2.4 mph /  3.9 km/h 46 % 0 in /  0 mm
08:04 71.8 °F /  22.1 °C 49.9 °F /  9.9 °C 29.97 in /  1014.8 hPa South 3.5 mph /  5.6 km/h 2.8 mph /  4.5 km/h 46 % 0 in /  0 mm
08:09 72.6 °F /  22.6 °C 50 °F /  10 °C 29.97 in /  1014.8 hPa South 3.5 mph /  5.6 km/h 2.6 mph /  4.2 km/h 45 % 0 in /  0 mm
08:14 73.4 °F /  23 °C 50.2 °F /  10.1 °C 29.97 in /  1014.8 hPa South 4.6 mph /  7.4 km/h 3.3 mph /  5.3 km/h 44 % 0 in /  0 mm
08:19 74.3 °F /  23.5 °C 50.4 °F /  10.2 °C 29.97 in /  1014.8 hPa South 7 mph /  11.3 km/h 6.1 mph /  9.8 km/h 43 % 0 in /  0 mm
08:24 75 °F /  23.9 °C 50.3 °F /  10.2 °C 29.97 in /  1014.8 hPa South 7 mph /  11.3 km/h 5.9 mph /  9.5 km/h 42 % 0 in /  0 mm
08:29 75.9 °F /  24.4 °C 50.5 °F /  10.3 °C 29.97 in /  1014.8 hPa East 5.8 mph /  9.3 km/h 4.2 mph /  6.8 km/h 41 % 0 in /  0 mm
08:34 76.7 °F /  24.8 °C 50.6 °F /  10.3 °C 29.97 in /  1014.8 hPa ENE 10.4 mph /  16.7 km/h 5.3 mph /  8.5 km/h 40 % 0 in /  0 mm
08:39 77.2 °F /  25.1 °C 51 °F /  10.6 °C 29.97 in /  1014.8 hPa ENE 4.6 mph /  7.4 km/h 2.5 mph /  4 km/h 40 % 0 in /  0 mm
08:44 77.9 °F /  25.5 °C 50.9 °F /  10.5 °C 29.97 in /  1014.8 hPa ENE 6 mph /  9.7 km/h 4.6 mph /  7.4 km/h 39 % 0 in /  0 mm
08:49 78.4 °F /  25.8 °C 50.7 °F /  10.4 °C 29.97 in /  1014.8 hPa ENE 8.1 mph /  13 km/h 4.2 mph /  6.8 km/h 38 % 0 in /  0 mm
08:54 78.8 °F /  26 °C 51 °F /  10.6 °C 29.97 in /  1014.8 hPa ENE 5.8 mph /  9.3 km/h 5.3 mph /  8.5 km/h 38 % 0 in /  0 mm
08:59 79.5 °F /  26.4 °C 51.7 °F /  10.9 °C 29.97 in /  1014.8 hPa NE 8 mph /  12.9 km/h 5.9 mph /  9.5 km/h 38 % 0 in /  0 mm
09:04 79.9 °F /  26.6 °C 51.3 °F /  10.7 °C 29.97 in /  1014.8 hPa NNE 15 mph /  24.1 km/h 12.4 mph /  20 km/h 37 % 0 in /  0 mm
09:09 79.8 °F /  26.6 °C 51.2 °F /  10.7 °C 29.96 in /  1014.4 hPa NNE 11.5 mph /  18.5 km/h 6 mph /  9.7 km/h 37 % 0 in /  0 mm
09:14 79.9 °F /  26.6 °C 51.3 °F /  10.7 °C 29.96 in /  1014.4 hPa North 13.8 mph /  22.2 km/h 6.2 mph /  10 km/h 37 % 0 in /  0 mm
09:19 80.3 °F /  26.8 °C 51.7 °F /  10.9 °C 29.96 in /  1014.4 hPa NNE 11.5 mph /  18.5 km/h 7.7 mph /  12.4 km/h 37 % 0 in /  0 mm
09:24 80.6 °F /  27 °C 51.2 °F /  10.7 °C 29.96 in /  1014.4 hPa NNE 13.8 mph /  22.2 km/h 7.3 mph /  11.7 km/h 36 % 0 in /  0 mm
09:29 81.2 °F /  27.3 °C 51.7 °F /  10.9 °C 29.96 in /  1014.4 hPa NNE 11.5 mph /  18.5 km/h 8.5 mph /  13.7 km/h 36 % 0 in /  0 mm
09:34 81.6 °F /  27.6 °C 51.3 °F /  10.7 °C 29.95 in /  1014.1 hPa NNE 10.4 mph /  16.7 km/h 7.2 mph /  11.6 km/h 35 % 0 in /  0 mm
09:39 82.2 °F /  27.9 °C 52.6 °F /  11.4 °C 29.95 in /  1014.1 hPa NNE 13 mph /  20.9 km/h 7.1 mph /  11.4 km/h 36 % 0 in /  0 mm
09:44 82.7 °F /  28.2 °C 51.5 °F /  10.8 °C 29.95 in /  1014.1 hPa North 16.1 mph /  25.9 km/h 9.6 mph /  15.4 km/h 34 % 0 in /  0 mm
09:49 82.9 °F /  28.3 °C 51.6 °F /  10.9 °C 29.95 in /  1014.1 hPa NNE 12.7 mph /  20.4 km/h 6.4 mph /  10.3 km/h 34 % 0 in /  0 mm
09:54 83.6 °F /  28.7 °C 52.3 °F /  11.3 °C 29.95 in /  1014.1 hPa North 11.5 mph /  18.5 km/h 7.4 mph /  11.9 km/h 34 % 0 in /  0 mm
09:59 84 °F /  28.9 °C 51.8 °F /  11 °C 29.95 in /  1014.1 hPa NNW 12 mph /  19.3 km/h 9.7 mph /  15.6 km/h 33 % 0 in /  0 mm
10:04 83.9 °F /  28.8 °C 52.5 °F /  11.4 °C 29.95 in /  1014.1 hPa NNW 9.2 mph /  14.8 km/h 5.3 mph /  8.5 km/h 34 % 0 in /  0 mm
10:09 84.7 °F /  29.3 °C 51.6 °F /  10.9 °C 29.95 in /  1014.1 hPa NNE 19 mph /  30.6 km/h 12 mph /  19.3 km/h 32 % 0 in /  0 mm
10:14 84.5 °F /  29.2 °C 51.4 °F /  10.8 °C 29.95 in /  1014.1 hPa NNE 15 mph /  24.1 km/h 10.8 mph /  17.4 km/h 32 % 0 in /  0 mm
10:19 84.5 °F /  29.2 °C 51.4 °F /  10.8 °C 29.95 in /  1014.1 hPa North 11.5 mph /  18.5 km/h 9 mph /  14.5 km/h 32 % 0 in /  0 mm
10:24 84.7 °F /  29.3 °C 51.6 °F /  10.9 °C 29.95 in /  1014.1 hPa North 16.1 mph /  25.9 km/h 10.9 mph /  17.5 km/h 32 % 0 in /  0 mm
10:29 85.2 °F /  29.6 °C 51.1 °F /  10.6 °C 29.95 in /  1014.1 hPa NE 16.1 mph /  25.9 km/h 11.7 mph /  18.8 km/h 31 % 0 in /  0 mm
10:34 85.2 °F /  29.6 °C 51.1 °F /  10.6 °C 29.95 in /  1014.1 hPa North 12.7 mph /  20.4 km/h 9.8 mph /  15.8 km/h 31 % 0 in /  0 mm
10:39 85.3 °F /  29.6 °C 51.2 °F /  10.7 °C 29.95 in /  1014.1 hPa North 13 mph /  20.9 km/h 11.3 mph /  18.2 km/h 31 % 0 in /  0 mm
10:44 85.5 °F /  29.7 °C 51.4 °F /  10.8 °C 29.95 in /  1014.1 hPa NNE 12.7 mph /  20.4 km/h 7.4 mph /  11.9 km/h 31 % 0 in /  0 mm
10:49 86 °F /  30 °C 51 °F /  10.6 °C 29.95 in /  1014.1 hPa NNE 17.3 mph /  27.8 km/h 7.6 mph /  12.2 km/h 30 % 0 in /  0 mm
10:54 86.3 °F /  30.2 °C 51.2 °F /  10.7 °C 29.95 in /  1014.1 hPa North 12 mph /  19.3 km/h 7.4 mph /  11.9 km/h 30 % 0 in /  0 mm
10:59 86.3 °F /  30.2 °C 51.2 °F /  10.7 °C 29.94 in /  1013.8 hPa NNW 13.8 mph /  22.2 km/h 9.3 mph /  15 km/h 30 % 0 in /  0 mm
11:04 86.4 °F /  30.2 °C 51.3 °F /  10.7 °C 29.94 in /  1013.8 hPa NNW 10.4 mph /  16.7 km/h 8.1 mph /  13 km/h 30 % 0 in /  0 mm
11:09 86.9 °F /  30.5 °C 50.8 °F /  10.4 °C 29.94 in /  1013.8 hPa NW 12.7 mph /  20.4 km/h 8.6 mph /  13.8 km/h 29 % 0 in /  0 mm
11:14 86.9 °F /  30.5 °C 51.7 °F /  10.9 °C 29.94 in /  1013.8 hPa North 15 mph /  24.1 km/h 8.2 mph /  13.2 km/h 30 % 0 in /  0 mm
11:19 87.1 °F /  30.6 °C 51.9 °F /  11.1 °C 29.94 in /  1013.8 hPa North 15 mph /  24.1 km/h 10.4 mph /  16.7 km/h 30 % 0 in /  0 mm
11:24 87.5 °F /  30.8 °C 51.3 °F /  10.7 °C 29.94 in /  1013.8 hPa North 11.5 mph /  18.5 km/h 7.5 mph /  12.1 km/h 29 % 0 in /  0 mm
11:29 87.8 °F /  31 °C 51.6 °F /  10.9 °C 29.94 in /  1013.8 hPa NNE 18.4 mph /  29.6 km/h 6.9 mph /  11.1 km/h 29 % 0 in /  0 mm
11:34 88.3 °F /  31.3 °C 50.1 °F /  10.1 °C 29.94 in /  1013.8 hPa North 12.7 mph /  20.4 km/h 11.5 mph /  18.5 km/h 27 % 0 in /  0 mm
11:39 88.1 °F /  31.2 °C 49.9 °F /  9.9 °C 29.93 in /  1013.4 hPa NNW 10.4 mph /  16.7 km/h 7.4 mph /  11.9 km/h 27 % 0 in /  0 mm
11:44 88.5 °F /  31.4 °C 50.3 °F /  10.2 °C 29.93 in /  1013.4 hPa NNE 16.1 mph /  25.9 km/h 10.9 mph /  17.5 km/h 27 % 0 in /  0 mm
11:49 88.7 °F /  31.5 °C 48.4 °F /  9.1 °C 29.93 in /  1013.4 hPa North 16.1 mph /  25.9 km/h 9.5 mph /  15.3 km/h 25 % 0 in /  0 mm
11:54 88.9 °F /  31.6 °C 49.6 °F /  9.8 °C 29.93 in /  1013.4 hPa NNE 10.4 mph /  16.7 km/h 7.3 mph /  11.7 km/h 26 % 0 in /  0 mm
11:59 89.1 °F /  31.7 °C 49.7 °F /  9.8 °C 29.93 in /  1013.4 hPa NNE 13.8 mph /  22.2 km/h 8.7 mph /  14 km/h 26 % 0 in /  0 mm
12:04 89.3 °F /  31.8 °C 48.9 °F /  9.4 °C 29.93 in /  1013.4 hPa North 11.5 mph /  18.5 km/h 5.4 mph /  8.7 km/h 25 % 0 in /  0 mm
12:09 90.1 °F /  32.3 °C 50.6 °F /  10.3 °C 29.93 in /  1013.4 hPa NNW 12.7 mph /  20.4 km/h 6.8 mph /  10.9 km/h 26 % 0 in /  0 mm
12:14 90.1 °F /  32.3 °C 50.6 °F /  10.3 °C 29.92 in /  1013.1 hPa NNE 15 mph /  24.1 km/h 10.9 mph /  17.5 km/h 26 % 0 in /  0 mm
12:19 89.7 °F /  32.1 °C 50.3 °F /  10.2 °C 29.92 in /  1013.1 hPa North 15 mph /  24.1 km/h 10.9 mph /  17.5 km/h 26 % 0 in /  0 mm
12:24 90.2 °F /  32.3 °C 49.6 °F /  9.8 °C 29.92 in /  1013.1 hPa NNW 9.2 mph /  14.8 km/h 4.2 mph /  6.8 km/h 25 % 0 in /  0 mm
12:29 90.9 °F /  32.7 °C 48 °F /  8.9 °C 29.92 in /  1013.1 hPa NW 18.4 mph /  29.6 km/h 11.1 mph /  17.9 km/h 23 % 0 in /  0 mm
12:34 89.9 °F /  32.2 °C 48.3 °F /  9.1 °C 29.91 in /  1012.8 hPa NW 12.7 mph /  20.4 km/h 8.7 mph /  14 km/h 24 % 0 in /  0 mm
12:39 90.3 °F /  32.4 °C 47.5 °F /  8.6 °C 29.92 in /  1013.1 hPa NNW 14 mph /  22.5 km/h 8.8 mph /  14.2 km/h 23 % 0 in /  0 mm
12:44 90.3 °F /  32.4 °C 47.5 °F /  8.6 °C 29.92 in /  1013.1 hPa NNW 15 mph /  24.1 km/h 7.2 mph /  11.6 km/h 23 % 0 in /  0 mm
12:49 90.4 °F /  32.4 °C 46.4 °F /  8 °C 29.91 in /  1012.8 hPa NNW 9.2 mph /  14.8 km/h 7.8 mph /  12.6 km/h 22 % 0 in /  0 mm
12:54 90.6 °F /  32.6 °C 46.5 °F /  8.1 °C 29.91 in /  1012.8 hPa NNE 10.4 mph /  16.7 km/h 4.4 mph /  7.1 km/h 22 % 0 in /  0 mm
12:59 91.3 °F /  32.9 °C 47.1 °F /  8.4 °C 29.90 in /  1012.4 hPa NNE 16.1 mph /  25.9 km/h 11 mph /  17.7 km/h 22 % 0 in /  0 mm
13:04 91.5 °F /  33.1 °C 47.3 °F /  8.5 °C 29.90 in /  1012.4 hPa NNE 13.8 mph /  22.2 km/h 5.6 mph /  9 km/h 22 % 0 in /  0 mm
13:09 91.3 °F /  32.9 °C 45.9 °F /  7.7 °C 29.90 in /  1012.4 hPa North 5.8 mph /  9.3 km/h 4.3 mph /  6.9 km/h 21 % 0 in /  0 mm
13:14 91.8 °F /  33.2 °C 46.3 °F /  7.9 °C 29.90 in /  1012.4 hPa NNW 18.4 mph /  29.6 km/h 10.1 mph /  16.3 km/h 21 % 0 in /  0 mm
13:19 92 °F /  33.3 °C 46.5 °F /  8.1 °C 29.89 in /  1012.1 hPa NNW 15 mph /  24.1 km/h 4.6 mph /  7.4 km/h 21 % 0 in /  0 mm
13:24 92.8 °F /  33.8 °C 47.1 °F /  8.4 °C 29.89 in /  1012.1 hPa North 5.8 mph /  9.3 km/h 2.7 mph /  4.3 km/h 21 % 0 in /  0 mm
13:29 93.3 °F /  34.1 °C 46.2 °F /  7.9 °C 29.89 in /  1012.1 hPa North 10 mph /  16.1 km/h 7.3 mph /  11.7 km/h 20 % 0 in /  0 mm
13:34 93.1 °F /  33.9 °C 46.1 °F /  7.8 °C 29.89 in /  1012.1 hPa NNE 11.5 mph /  18.5 km/h 5 mph /  8 km/h 20 % 0 in /  0 mm
13:39 93.3 °F /  34.1 °C 46.2 °F /  7.9 °C 29.89 in /  1012.1 hPa North 12 mph /  19.3 km/h 10.8 mph /  17.4 km/h 20 % 0 in /  0 mm
13:44 92.4 °F /  33.6 °C 44.2 °F /  6.8 °C 29.88 in /  1011.7 hPa North 16.1 mph /  25.9 km/h 10 mph /  16.1 km/h 19 % 0 in /  0 mm
13:49 92.6 °F /  33.7 °C 44.3 °F /  6.8 °C 29.88 in /  1011.7 hPa North 16.1 mph /  25.9 km/h 12.3 mph /  19.8 km/h 19 % 0 in /  0 mm
13:54 92.2 °F /  33.4 °C 45.3 °F /  7.4 °C 29.88 in /  1011.7 hPa NNW 10.4 mph /  16.7 km/h 5.2 mph /  8.4 km/h 20 % 0 in /  0 mm
13:59 92.7 °F /  33.7 °C 44.4 °F /  6.9 °C 29.88 in /  1011.7 hPa NNE 13.8 mph /  22.2 km/h 10.9 mph /  17.5 km/h 19 % 0 in /  0 mm
14:04 92.9 °F /  33.8 °C 45.9 °F /  7.7 °C 29.87 in /  1011.4 hPa North 14 mph /  22.5 km/h 9.5 mph /  15.3 km/h 20 % 0 in /  0 mm
14:09 93.3 °F /  34.1 °C 44.9 °F /  7.2 °C 29.87 in /  1011.4 hPa NW 11.5 mph /  18.5 km/h 10.1 mph /  16.3 km/h 19 % 0 in /  0 mm
14:14 93.3 °F /  34.1 °C 44.9 °F /  7.2 °C 29.87 in /  1011.4 hPa NNW 10.4 mph /  16.7 km/h 7.4 mph /  11.9 km/h 19 % 0 in /  0 mm
14:19 94.4 °F /  34.7 °C 44.4 °F /  6.9 °C 29.87 in /  1011.4 hPa NNE 16.1 mph /  25.9 km/h 8.1 mph /  13 km/h 18 % 0 in /  0 mm
14:24 94.4 °F /  34.7 °C 47.1 °F /  8.4 °C 29.86 in /  1011.1 hPa NNE 7 mph /  11.3 km/h 5.9 mph /  9.5 km/h 20 % 0 in /  0 mm
14:29 94.3 °F /  34.6 °C 44.3 °F /  6.8 °C 29.86 in /  1011.1 hPa North 13.8 mph /  22.2 km/h 12 mph /  19.3 km/h 18 % 0 in /  0 mm
14:34 94 °F /  34.4 °C 45.5 °F /  7.5 °C 29.86 in /  1011.1 hPa North 11.5 mph /  18.5 km/h 4.8 mph /  7.7 km/h 19 % 0 in /  0 mm
14:39 94.5 °F /  34.7 °C 45.9 °F /  7.7 °C 29.85 in /  1010.7 hPa North 17 mph /  27.4 km/h 9.2 mph /  14.8 km/h 19 % 0 in /  0 mm
14:44 94.4 °F /  34.7 °C 45.8 °F /  7.7 °C 29.85 in /  1010.7 hPa North 19.6 mph /  31.5 km/h 9.8 mph /  15.8 km/h 19 % 0 in /  0 mm
14:49 94.4 °F /  34.7 °C 45.8 °F /  7.7 °C 29.85 in /  1010.7 hPa North 13.8 mph /  22.2 km/h 7 mph /  11.3 km/h 19 % 0 in /  0 mm
14:54 94.6 °F /  34.8 °C 46 °F /  7.8 °C 29.84 in /  1010.4 hPa NNE 13.8 mph /  22.2 km/h 8.1 mph /  13 km/h 19 % 0 in /  0 mm
14:59 94.9 °F /  34.9 °C 44.8 °F /  7.1 °C 29.84 in /  1010.4 hPa NW 11.5 mph /  18.5 km/h 4.6 mph /  7.4 km/h 18 % 0 in /  0 mm
15:04 95.1 °F /  35.1 °C 43.4 °F /  6.3 °C 29.84 in /  1010.4 hPa North 15 mph /  24.1 km/h 8.5 mph /  13.7 km/h 17 % 0 in /  0 mm
15:09 95.2 °F /  35.1 °C 41.9 °F /  5.5 °C 29.84 in /  1010.4 hPa NNW 19 mph /  30.6 km/h 15.3 mph /  24.6 km/h 16 % 0 in /  0 mm
15:14 94.9 °F /  34.9 °C 43.3 °F /  6.3 °C 29.84 in /  1010.4 hPa North 17.3 mph /  27.8 km/h 9.5 mph /  15.3 km/h 17 % 0 in /  0 mm
15:19 95.4 °F /  35.2 °C 42.1 °F /  5.6 °C 29.84 in /  1010.4 hPa NNE 6 mph /  9.7 km/h 5.3 mph /  8.5 km/h 16 % 0 in /  0 mm
15:24 95.6 °F /  35.3 °C 43.8 °F /  6.6 °C 29.84 in /  1010.4 hPa NNW 10.4 mph /  16.7 km/h 4.3 mph /  6.9 km/h 17 % 0 in /  0 mm
15:29 96 °F /  35.6 °C 42.6 °F /  5.9 °C 29.84 in /  1010.4 hPa NNW 12.7 mph /  20.4 km/h 8 mph /  12.9 km/h 16 % 0 in /  0 mm
15:34 96 °F /  35.6 °C 42.6 °F /  5.9 °C 29.83 in /  1010 hPa NNW 11.5 mph /  18.5 km/h 6.9 mph /  11.1 km/h 16 % 0 in /  0 mm
15:39 95.5 °F /  35.3 °C 42.2 °F /  5.7 °C 29.83 in /  1010 hPa NW 17.3 mph /  27.8 km/h 9.7 mph /  15.6 km/h 16 % 0 in /  0 mm
15:44 95.3 °F /  35.2 °C 43.6 °F /  6.4 °C 29.83 in /  1010 hPa North 10.4 mph /  16.7 km/h 5.2 mph /  8.4 km/h 17 % 0 in /  0 mm
15:49 95.7 °F /  35.4 °C 43.9 °F /  6.6 °C 29.83 in /  1010 hPa North 11.5 mph /  18.5 km/h 6.7 mph /  10.8 km/h 17 % 0 in /  0 mm
15:54 95.6 °F /  35.3 °C 42.3 °F /  5.7 °C 29.82 in /  1009.7 hPa North 16.1 mph /  25.9 km/h 8 mph /  12.9 km/h 16 % 0 in /  0 mm
15:59 95.1 °F /  35.1 °C 43.4 °F /  6.3 °C 29.82 in /  1009.7 hPa NNW 11.5 mph /  18.5 km/h 5.5 mph /  8.9 km/h 17 % 0 in /  0 mm
16:04 95.6 °F /  35.3 °C 45.3 °F /  7.4 °C 29.82 in /  1009.7 hPa NNE 11 mph /  17.7 km/h 6.5 mph /  10.5 km/h 18 % 0 in /  0 mm
16:09 95.8 °F /  35.4 °C 40.7 °F /  4.8 °C 29.82 in /  1009.7 hPa NNW 10.4 mph /  16.7 km/h 8.7 mph /  14 km/h 15 % 0 in /  0 mm
16:14 95.6 °F /  35.3 °C 42.3 °F /  5.7 °C 29.82 in /  1009.7 hPa North 13.8 mph /  22.2 km/h 8.3 mph /  13.4 km/h 16 % 0 in /  0 mm
16:19 96.1 °F /  35.6 °C 41 °F /  5 °C 29.82 in /  1009.7 hPa NNE 13 mph /  20.9 km/h 10.7 mph /  17.2 km/h 15 % 0 in /  0 mm
16:24 96.1 °F /  35.6 °C 41 °F /  5 °C 29.81 in /  1009.4 hPa NNW 11.5 mph /  18.5 km/h 5.6 mph /  9 km/h 15 % 0 in /  0 mm
16:29 95.8 °F /  35.4 °C 40.7 °F /  4.8 °C 29.81 in /  1009.4 hPa North 19.6 mph /  31.5 km/h 11.5 mph /  18.5 km/h 15 % 0 in /  0 mm
16:34 95.6 °F /  35.3 °C 40.6 °F /  4.8 °C 29.81 in /  1009.4 hPa North 9.2 mph /  14.8 km/h 5.3 mph /  8.5 km/h 15 % 0 in /  0 mm
16:39 96.3 °F /  35.7 °C 41.1 °F /  5.1 °C 29.81 in /  1009.4 hPa NNW 12.7 mph /  20.4 km/h 11.7 mph /  18.8 km/h 15 % 0 in /  0 mm
16:44 96.6 °F /  35.9 °C 41.4 °F /  5.2 °C 29.81 in /  1009.4 hPa NNW 6.9 mph /  11.1 km/h 3.8 mph /  6.1 km/h 15 % 0 in /  0 mm
16:49 96.7 °F /  35.9 °C 41.4 °F /  5.2 °C 29.81 in /  1009.4 hPa North 15 mph /  24.1 km/h 6.5 mph /  10.5 km/h 15 % 0 in /  0 mm
16:54 96.2 °F /  35.7 °C 39.3 °F /  4.1 °C 29.81 in /  1009.4 hPa NW 19.6 mph /  31.5 km/h 6 mph /  9.7 km/h 14 % 0 in /  0 mm
16:59 95.4 °F /  35.2 °C 38.6 °F /  3.7 °C 29.81 in /  1009.4 hPa NNW 13 mph /  20.9 km/h 9.5 mph /  15.3 km/h 14 % 0 in /  0 mm
17:04 95.4 °F /  35.2 °C 40.4 °F /  4.7 °C 29.81 in /  1009.4 hPa NNE 9.2 mph /  14.8 km/h 8.3 mph /  13.4 km/h 15 % 0 in /  0 mm
17:09 95.7 °F /  35.4 °C 38.9 °F /  3.8 °C 29.81 in /  1009.4 hPa North 15 mph /  24.1 km/h 11.7 mph /  18.8 km/h 14 % 0 in /  0 mm
17:14 95.9 °F /  35.5 °C 39 °F /  3.9 °C 29.80 in /  1009 hPa North 12.7 mph /  20.4 km/h 5.6 mph /  9 km/h 14 % 0 in /  0 mm
17:19 96.3 °F /  35.7 °C 39.4 °F /  4.1 °C 29.80 in /  1009 hPa NNW 15 mph /  24.1 km/h 9 mph /  14.5 km/h 14 % 0 in /  0 mm
17:24 96.5 °F /  35.8 °C 39.5 °F /  4.2 °C 29.80 in /  1009 hPa NNW 11.5 mph /  18.5 km/h 7.2 mph /  11.6 km/h 14 % 0 in /  0 mm
17:29 96.3 °F /  35.7 °C 39.4 °F /  4.1 °C 29.80 in /  1009 hPa NNE 10.4 mph /  16.7 km/h 6.4 mph /  10.3 km/h 14 % 0 in /  0 mm
17:34 96.5 °F /  35.8 °C 39.5 °F /  4.2 °C 29.80 in /  1009 hPa North 11.5 mph /  18.5 km/h 7.3 mph /  11.7 km/h 14 % 0 in /  0 mm
17:39 96.7 °F /  35.9 °C 39.7 °F /  4.3 °C 29.80 in /  1009 hPa NW 11 mph /  17.7 km/h 10.4 mph /  16.7 km/h 14 % 0 in /  0 mm
17:44 96.7 °F /  35.9 °C 39.7 °F /  4.3 °C 29.80 in /  1009 hPa North 18.4 mph /  29.6 km/h 8.6 mph /  13.8 km/h 14 % 0 in /  0 mm
17:49 96.2 °F /  35.7 °C 39.3 °F /  4.1 °C 29.80 in /  1009 hPa North 10.4 mph /  16.7 km/h 8 mph /  12.9 km/h 14 % 0 in /  0 mm
17:54 95.8 °F /  35.4 °C 39 °F /  3.9 °C 29.79 in /  1008.7 hPa North 15 mph /  24.1 km/h 6.8 mph /  10.9 km/h 14 % 0 in /  0 mm
17:59 95.5 °F /  35.3 °C 38.7 °F /  3.7 °C 29.79 in /  1008.7 hPa NW 10.4 mph /  16.7 km/h 8.8 mph /  14.2 km/h 14 % 0 in /  0 mm
18:04 95.4 °F /  35.2 °C 38.6 °F /  3.7 °C 29.79 in /  1008.7 hPa NNW 9.2 mph /  14.8 km/h 4.5 mph /  7.2 km/h 14 % 0 in /  0 mm
18:09 95.9 °F /  35.5 °C 39 °F /  3.9 °C 29.79 in /  1008.7 hPa NNW 10.4 mph /  16.7 km/h 7.1 mph /  11.4 km/h 14 % 0 in /  0 mm
18:14 95.8 °F /  35.4 °C 37.1 °F /  2.8 °C 29.79 in /  1008.7 hPa NW 16.1 mph /  25.9 km/h 7 mph /  11.3 km/h 13 % 0 in /  0 mm
18:19 95.2 °F /  35.1 °C 38.5 °F /  3.6 °C 29.79 in /  1008.7 hPa NNW 11.5 mph /  18.5 km/h 7.2 mph /  11.6 km/h 14 % 0 in /  0 mm
18:24 94.9 °F /  34.9 °C 38.3 °F /  3.5 °C 29.79 in /  1008.7 hPa NNW 16.1 mph /  25.9 km/h 12.2 mph /  19.6 km/h 14 % 0 in /  0 mm
18:29 94.6 °F /  34.8 °C 38 °F /  3.3 °C 29.79 in /  1008.7 hPa NW 10.4 mph /  16.7 km/h 5.7 mph /  9.2 km/h 14 % 0 in /  0 mm
18:34 94.5 °F /  34.7 °C 37.9 °F /  3.3 °C 29.80 in /  1009 hPa NNW 8.1 mph /  13 km/h 6.9 mph /  11.1 km/h 14 % 0 in /  0 mm
18:39 94.5 °F /  34.7 °C 37.9 °F /  3.3 °C 29.80 in /  1009 hPa NNW 6.9 mph /  11.1 km/h 5 mph /  8 km/h 14 % 0 in /  0 mm
18:44 94.4 °F /  34.7 °C 37.9 °F /  3.3 °C 29.80 in /  1009 hPa North 11 mph /  17.7 km/h 6.8 mph /  10.9 km/h 14 % 0 in /  0 mm
18:49 94.5 °F /  34.7 °C 39.7 °F /  4.3 °C 29.80 in /  1009 hPa North 6.9 mph /  11.1 km/h 5.2 mph /  8.4 km/h 15 % 0 in /  0 mm
18:54 94.5 °F /  34.7 °C 37.9 °F /  3.3 °C 29.80 in /  1009 hPa North 6.9 mph /  11.1 km/h 3.2 mph /  5.1 km/h 14 % 0 in /  0 mm
18:59 94.5 °F /  34.7 °C 37.9 °F /  3.3 °C 29.80 in /  1009 hPa NW 13 mph /  20.9 km/h 9.3 mph /  15 km/h 14 % 0 in /  0 mm
19:04 94.5 °F /  34.7 °C 37.9 °F /  3.3 °C 29.80 in /  1009 hPa NNW 9.2 mph /  14.8 km/h 4 mph /  6.4 km/h 14 % 0 in /  0 mm
19:09 94.4 °F /  34.7 °C 37.9 °F /  3.3 °C 29.80 in /  1009 hPa NNW 6 mph /  9.7 km/h 5.3 mph /  8.5 km/h 14 % 0 in /  0 mm
19:14 94.4 °F /  34.7 °C 39.6 °F /  4.2 °C 29.80 in /  1009 hPa North 10.4 mph /  16.7 km/h 4.5 mph /  7.2 km/h 15 % 0 in /  0 mm
19:19 94.4 °F /  34.7 °C 39.6 °F /  4.2 °C 29.80 in /  1009 hPa North 5 mph /  8 km/h 2.8 mph /  4.5 km/h 15 % 0 in /  0 mm
19:24 94.5 °F /  34.7 °C 37.9 °F /  3.3 °C 29.80 in /  1009 hPa North 11.5 mph /  18.5 km/h 5.3 mph /  8.5 km/h 14 % 0 in /  0 mm
19:29 94.4 °F /  34.7 °C 37.9 °F /  3.3 °C 29.81 in /  1009.4 hPa NNW 11.5 mph /  18.5 km/h 6.5 mph /  10.5 km/h 14 % 0 in /  0 mm
19:34 94.4 °F /  34.7 °C 39.6 °F /  4.2 °C 29.81 in /  1009.4 hPa NNW 8.1 mph /  13 km/h 4.7 mph /  7.6 km/h 15 % 0 in /  0 mm
19:39 94.6 °F /  34.8 °C 38 °F /  3.3 °C 29.81 in /  1009.4 hPa NNW 6.9 mph /  11.1 km/h 4.7 mph /  7.6 km/h 14 % 0 in /  0 mm
19:44 94.6 °F /  34.8 °C 39.8 °F /  4.3 °C 29.81 in /  1009.4 hPa North 4.6 mph /  7.4 km/h 3.5 mph /  5.6 km/h 15 % 0 in /  0 mm
19:49 94.5 °F /  34.7 °C 37.9 °F /  3.3 °C 29.81 in /  1009.4 hPa NNW 8.1 mph /  13 km/h 4.5 mph /  7.2 km/h 14 % 0 in /  0 mm
19:54 94.4 °F /  34.7 °C 37.9 °F /  3.3 °C 29.81 in /  1009.4 hPa North 9 mph /  14.5 km/h 6.2 mph /  10 km/h 14 % 0 in /  0 mm
19:59 94.1 °F /  34.5 °C 37.6 °F /  3.1 °C 29.81 in /  1009.4 hPa NNW 6.9 mph /  11.1 km/h 3.5 mph /  5.6 km/h 14 % 0 in /  0 mm
20:04 93.8 °F /  34.3 °C 39.2 °F /  4 °C 29.81 in /  1009.4 hPa NNW 5 mph /  8 km/h 3.6 mph /  5.8 km/h 15 % 0 in /  0 mm
20:09 93.6 °F /  34.2 °C 39 °F /  3.9 °C 29.81 in /  1009.4 hPa NNW 5 mph /  8 km/h 3.5 mph /  5.6 km/h 15 % 0 in /  0 mm
20:14 93.3 °F /  34.1 °C 38.8 °F /  3.8 °C 29.81 in /  1009.4 hPa NNW 6.9 mph /  11.1 km/h 3.4 mph /  5.5 km/h 15 % 0 in /  0 mm
20:19 92.8 °F /  33.8 °C 40 °F /  4.4 °C 29.81 in /  1009.4 hPa NNW 3.5 mph /  5.6 km/h 2.4 mph /  3.9 km/h 16 % 0 in /  0 mm
20:24 92.3 °F /  33.5 °C 39.6 °F /  4.2 °C 29.81 in /  1009.4 hPa NNW 2.3 mph /  3.7 km/h 1.5 mph /  2.4 km/h 16 % 0 in /  0 mm
20:29 91.7 °F /  33.2 °C 40.7 °F /  4.8 °C 29.81 in /  1009.4 hPa NNW 3.5 mph /  5.6 km/h 1.8 mph /  2.9 km/h 17 % 0 in /  0 mm
20:34 90.9 °F /  32.7 °C 40.1 °F /  4.5 °C 29.81 in /  1009.4 hPa NNW 3.5 mph /  5.6 km/h 2.5 mph /  4 km/h 17 % 0 in /  0 mm
20:39 90.2 °F /  32.3 °C 42.4 °F /  5.8 °C 29.81 in /  1009.4 hPa NNW 2.3 mph /  3.7 km/h 1 mph /  1.6 km/h 19 % 0 in /  0 mm
20:44 89.1 °F /  31.7 °C 40.1 °F /  4.5 °C 29.81 in /  1009.4 hPa Calm   0.2 mph /  0.3 km/h 18 % 0 in /  0 mm
20:49 88.3 °F /  31.3 °C 42.1 °F /  5.6 °C 29.81 in /  1009.4 hPa Calm     20 % 0 in /  0 mm
20:54 86.8 °F /  30.4 °C 42.2 °F /  5.7 °C 29.81 in /  1009.4 hPa NNW 1 mph /  1.6 km/h   21 % 0 in /  0 mm
20:59 85.4 °F /  29.7 °C 43.4 °F /  6.3 °C 29.81 in /  1009.4 hPa Calm     23 % 0 in /  0 mm
21:04 84.1 °F /  28.9 °C 43.4 °F /  6.3 °C 29.81 in /  1009.4 hPa Calm     24 % 0 in /  0 mm
21:09 82.8 °F /  28.2 °C 45.4 °F /  7.4 °C 29.81 in /  1009.4 hPa NNW 2.3 mph /  3.7 km/h 2 mph /  3.2 km/h 27 % 0 in /  0 mm
21:14 81.7 °F /  27.6 °C 44.5 °F /  6.9 °C 29.81 in /  1009.4 hPa North 2.3 mph /  3.7 km/h 1.5 mph /  2.4 km/h 27 % 0 in /  0 mm
21:19 81.1 °F /  27.3 °C 43.9 °F /  6.6 °C 29.81 in /  1009.4 hPa Calm     27 % 0 in /  0 mm
21:24 80.2 °F /  26.8 °C 45.1 °F /  7.3 °C 29.81 in /  1009.4 hPa NNW 1.2 mph /  1.9 km/h 0.9 mph /  1.4 km/h 29 % 0 in /  0 mm
21:29 79.3 °F /  26.3 °C 46 °F /  7.8 °C 29.82 in /  1009.7 hPa NNW 2.3 mph /  3.7 km/h 1.3 mph /  2.1 km/h 31 % 0 in /  0 mm
21:34 78.8 °F /  26 °C 45.6 °F /  7.6 °C 29.82 in /  1009.7 hPa Calm     31 % 0 in /  0 mm
21:39 78.4 °F /  25.8 °C 45.3 °F /  7.4 °C 29.82 in /  1009.7 hPa Calm     31 % 0 in /  0 mm
21:44 78.1 °F /  25.6 °C 45 °F /  7.2 °C 29.82 in /  1009.7 hPa Calm     31 % 0 in /  0 mm
21:49 77.9 °F /  25.5 °C 44.8 °F /  7.1 °C 29.82 in /  1009.7 hPa Calm     31 % 0 in /  0 mm
21:54 77.7 °F /  25.4 °C 45.5 °F /  7.5 °C 29.82 in /  1009.7 hPa Calm     32 % 0 in /  0 mm
21:59 77.3 °F /  25.2 °C 45.9 °F /  7.7 °C 29.82 in /  1009.7 hPa Calm     33 % 0 in /  0 mm
22:04 76.7 °F /  24.8 °C 46.2 °F /  7.9 °C 29.82 in /  1009.7 hPa Calm     34 % 0 in /  0 mm
22:09 76.2 °F /  24.6 °C 45.8 °F /  7.7 °C 29.82 in /  1009.7 hPa Calm     34 % 0 in /  0 mm
22:14 75.8 °F /  24.3 °C 46.2 °F /  7.9 °C 29.82 in /  1009.7 hPa Calm     35 % 0 in /  0 mm
22:19 75.4 °F /  24.1 °C 46.6 °F /  8.1 °C 29.82 in /  1009.7 hPa Calm     36 % 0 in /  0 mm
22:24 75.2 °F /  24 °C 47.1 °F /  8.4 °C 29.82 in /  1009.7 hPa Calm     37 % 0 in /  0 mm
22:29 74.9 °F /  23.8 °C 46.9 °F /  8.3 °C 29.82 in /  1009.7 hPa Calm     37 % 0 in /  0 mm
22:34 74.7 °F /  23.7 °C 47.4 °F /  8.6 °C 29.82 in /  1009.7 hPa Calm     38 % 0 in /  0 mm
22:39 74.2 °F /  23.4 °C 47 °F /  8.3 °C 29.82 in /  1009.7 hPa Calm     38 % 0 in /  0 mm
22:44 73.7 °F /  23.2 °C 47.2 °F /  8.4 °C 29.82 in /  1009.7 hPa Calm     39 % 0 in /  0 mm
22:49 73.2 °F /  22.9 °C 46.8 °F /  8.2 °C 29.82 in /  1009.7 hPa Calm     39 % 0 in /  0 mm
22:54 72.9 °F /  22.7 °C 48.5 °F /  9.2 °C 29.83 in /  1010 hPa Calm     42 % 0 in /  0 mm
22:59 72.4 °F /  22.4 °C 48.6 °F /  9.2 °C 29.83 in /  1010 hPa NNW 3.5 mph /  5.6 km/h 1.6 mph /  2.6 km/h 43 % 0 in /  0 mm
23:04 71.9 °F /  22.2 °C 46.9 °F /  8.3 °C 29.83 in /  1010 hPa NNW 2.3 mph /  3.7 km/h 1.5 mph /  2.4 km/h 41 % 0 in /  0 mm
23:09 71.7 °F /  22.1 °C 46.1 °F /  7.8 °C 29.83 in /  1010 hPa NNW 1.2 mph /  1.9 km/h 0.1 mph /  0.2 km/h 40 % 0 in /  0 mm
23:14 71.4 °F /  21.9 °C 45.8 °F /  7.7 °C 29.83 in /  1010 hPa Calm     40 % 0 in /  0 mm
23:19 71.3 °F /  21.8 °C 45.7 °F /  7.6 °C 29.83 in /  1010 hPa Calm     40 % 0 in /  0 mm
23:24 71.1 °F /  21.7 °C 47.5 °F /  8.6 °C 29.83 in /  1010 hPa North 2.3 mph /  3.7 km/h 1.3 mph /  2.1 km/h 43 % 0 in /  0 mm
23:29 70.5 °F /  21.4 °C 46.9 °F /  8.3 °C 29.83 in /  1010 hPa NNW 1.2 mph /  1.9 km/h   43 % 0 in /  0 mm
23:34 70.3 °F /  21.3 °C 46.7 °F /  8.2 °C 29.83 in /  1010 hPa Calm     43 % 0 in /  0 mm
23:39 69.9 °F /  21.1 °C 46.4 °F /  8 °C 29.83 in /  1010 hPa NNW 2.3 mph /  3.7 km/h 0.7 mph /  1.1 km/h 43 % 0 in /  0 mm
23:44 70.2 °F /  21.2 °C 46 °F /  7.8 °C 29.83 in /  1010 hPa Calm     42 % 0 in /  0 mm
23:49 70.5 °F /  21.4 °C 46.3 °F /  7.9 °C 29.83 in /  1010 hPa Calm     42 % 0 in /  0 mm
23:54 70.6 °F /  21.4 °C 45.7 °F /  7.6 °C 29.83 in /  1010 hPa Calm     41 % 0 in /  0 mm
23:59 70.6 °F /  21.4 °C 47 °F /  8.3 °C 29.83 in /  1010 hPa Calm     43 % 0 in /  0 mm
Ararat Weather
Compliments of Weather Underground - 2.25 mb
Click here to send mail.


ABOUT

Live weather data from Ararat, Victoria, Australia, 3377
Data uploaded from Cumulus every 5 minutes to Weather Underground.
This site then downloads the raw data for formatting and display.
Metric and imperial data can be displayed. Graphs and historical data available.
Includes Sun and Moon times and rain image live from BOM.

Check out Ararat Weather on Facebook, Twitter and Google +

Help support ongoing costs by checking out the ads





Follow @AraratWeather